Time;durP1;ratioP1;P1;durP2;ratioP2;P2;SDS_P1;SDS_P2;PMS_P1;PMS_P2;Temp;Humidity;BMP_temperature;BMP_pressure;BME280_temperature;BME280_humidity;BME280_pressure;Samples;Min_cycle;Max_cycle;Signal;HPM_P1;HPM_P2
2022/01/06 00:01:00;;;;;;;4.50;1.23;;;8.70;96.00;;;;;;5003989;28;20034;-49
2022/01/06 00:03:27;;;;;;;4.60;1.63;;;8.70;95.90;;;;;;5003954;28;20041;-49
2022/01/06 00:05:54;;;;;;;6.13;1.58;;;8.70;96.00;;;;;;5002768;28;20393;-49
2022/01/06 00:08:19;;;;;;;2.45;1.27;;;8.70;96.00;;;;;;5003463;28;20045;-49
2022/01/06 00:10:48;;;;;;;3.47;1.35;;;8.70;96.00;;;;;;5002025;28;20062;-49
2022/01/06 00:13:17;;;;;;;2.42;1.60;;;8.70;96.00;;;;;;5005652;28;20440;-49
2022/01/06 00:23:07;;;;;;;1.40;1.08;;;8.70;96.00;;;;;;5002961;28;20380;-49
2022/01/06 00:23:42;;;;;;;1.52;0.73;;;8.70;96.10;;;;;;5001126;28;20122;-49
2022/01/06 00:26:08;;;;;;;2.10;1.20;;;8.70;96.10;;;;;;5004417;28;20014;-49
2022/01/06 00:28:35;;;;;;;1.63;1.23;;;8.60;96.10;;;;;;5001739;28;20092;-49
2022/01/06 00:31:02;;;;;;;4.80;1.10;;;8.70;96.10;;;;;;5003403;28;20365;-49
2022/01/06 00:33:30;;;;;;;3.38;1.20;;;8.70;96.10;;;;;;5003332;28;20117;-49
2022/01/06 00:35:56;;;;;;;3.35;1.23;;;8.70;96.20;;;;;;5003988;28;20028;-49
2022/01/06 00:38:24;;;;;;;4.03;1.40;;;8.70;96.10;;;;;;5001218;28;20031;-49
2022/01/06 00:40:50;;;;;;;2.00;1.40;;;8.70;96.20;;;;;;5005022;28;20038;-49
2022/01/06 00:43:16;;;;;;;5.35;1.42;;;8.70;96.20;;;;;;5002375;28;20034;-49
2022/01/06 00:45:41;;;;;;;3.90;1.10;;;8.70;96.20;;;;;;5002504;28;20073;-49
2022/01/06 00:48:09;;;;;;;1.55;0.90;;;8.70;96.20;;;;;;5002445;28;20039;-49
2022/01/06 00:50:37;;;;;;;1.40;1.00;;;8.70;96.20;;;;;;5002801;28;20026;-49
2022/01/06 00:53:04;;;;;;;4.20;1.23;;;8.70;96.30;;;;;;5001152;28;20444;-49
2022/01/06 00:55:31;;;;;;;2.60;1.08;;;8.70;96.20;;;;;;5001844;28;20032;-49
2022/01/06 00:57:57;;;;;;;4.82;1.05;;;8.70;96.20;;;;;;5001519;28;20077;-49
2022/01/06 01:00:27;;;;;;;1.70;1.30;;;8.70;96.20;;;;;;5001467;28;20395;-49
2022/01/06 01:02:53;;;;;;;3.35;1.10;;;8.70;96.30;;;;;;4999935;28;20035;-49
2022/01/06 01:05:18;;;;;;;3.53;1.10;;;8.70;96.30;;;;;;5000721;28;20136;-49
2022/01/06 01:07:44;;;;;;;9.48;1.52;;;8.70;96.30;;;;;;5004131;28;20041;-49
2022/01/06 01:10:10;;;;;;;1.23;0.82;;;8.70;96.40;;;;;;5000815;28;20338;-49
2022/01/06 01:12:35;;;;;;;1.40;0.90;;;8.60;96.40;;;;;;5000857;28;20589;-49
2022/01/06 01:15:08;;;;;;;6.82;1.25;;;8.70;96.40;;;;;;5000527;28;20026;-49
2022/01/06 01:17:34;;;;;;;3.80;1.00;;;8.70;96.40;;;;;;5001293;28;20110;-49
2022/01/06 01:20:01;;;;;;;4.72;1.10;;;8.70;96.40;;;;;;5000948;28;20110;-49
2022/01/06 01:22:26;;;;;;;3.13;1.00;;;8.60;96.40;;;;;;5000707;28;20033;-49
2022/01/06 01:24:52;;;;;;;6.47;1.40;;;8.70;96.40;;;;;;4999943;28;20019;-49
2022/01/06 01:27:21;;;;;;;4.45;1.60;;;8.70;96.40;;;;;;5003098;28;20022;-49
2022/01/06 01:29:58;;;;;;;2.43;1.07;;;8.70;96.50;;;;;;5001704;28;20037;-49
2022/01/06 01:32:30;;;;;;;2.15;1.13;;;8.60;96.40;;;;;;4999297;28;20038;-49
2022/01/06 01:35:00;;;;;;;1.50;1.23;;;8.70;96.50;;;;;;5001720;28;20353;-49
2022/01/06 01:37:27;;;;;;;0.82;0.82;;;8.70;96.50;;;;;;5002903;28;20512;-49
2022/01/06 01:39:52;;;;;;;7.20;1.77;;;8.70;96.40;;;;;;5001062;28;20042;-49
2022/01/06 01:42:18;;;;;;;5.10;1.10;;;8.70;96.50;;;;;;5000870;28;20030;-49
2022/01/06 01:44:45;;;;;;;4.43;1.23;;;8.70;96.50;;;;;;5000812;28;20360;-49
2022/01/06 01:47:14;;;;;;;5.57;0.85;;;8.70;96.50;;;;;;5001942;28;20033;-49
2022/01/06 01:49:50;;;;;;;3.83;1.53;;;8.70;96.50;;;;;;4999807;28;20044;-49
2022/01/06 01:52:16;;;;;;;3.10;1.20;;;8.70;96.50;;;;;;4999057;28;20041;-49
2022/01/06 01:54:41;;;;;;;1.77;1.00;;;8.70;96.60;;;;;;5001676;28;20132;-49
2022/01/06 01:57:07;;;;;;;4.95;1.20;;;8.70;96.50;;;;;;5001323;28;20034;-49
2022/01/06 01:59:32;;;;;;;1.55;0.95;;;8.70;96.60;;;;;;4997654;28;20026;-49
2022/01/06 02:01:58;;;;;;;2.42;0.98;;;8.70;96.50;;;;;;5000902;28;20042;-49
2022/01/06 02:04:24;;;;;;;3.28;0.98;;;8.70;96.50;;;;;;5002019;28;20026;-49
2022/01/06 02:06:49;;;;;;;1.92;0.95;;;8.70;96.60;;;;;;4999829;28;20030;-49
2022/01/06 02:09:15;;;;;;;3.63;1.10;;;8.70;96.50;;;;;;5001191;28;20133;-49
2022/01/06 02:11:41;;;;;;;1.17;1.00;;;8.70;96.60;;;;;;5003596;28;20061;-49
2022/01/06 02:14:07;;;;;;;3.13;1.27;;;8.70;96.60;;;;;;5001731;28;20069;-49
2022/01/06 02:16:33;;;;;;;2.15;1.10;;;8.70;96.60;;;;;;5003749;28;20018;-49
2022/01/06 02:19:00;;;;;;;1.80;1.30;;;8.70;96.60;;;;;;5001721;28;20041;-49
2022/01/06 02:21:26;;;;;;;6.18;2.00;;;8.70;96.70;;;;;;5000368;28;20030;-49
2022/01/06 02:23:51;;;;;;;1.85;1.65;;;8.70;96.70;;;;;;5003329;28;20367;-49
2022/01/06 02:26:17;;;;;;;1.73;1.63;;;8.70;96.70;;;;;;5003461;28;20089;-49
2022/01/06 02:28:43;;;;;;;6.22;1.85;;;8.70;96.70;;;;;;5005655;28;20080;-49
2022/01/06 02:31:09;;;;;;;1.55;1.25;;;8.70;96.70;;;;;;5002374;28;20029;-49
2022/01/06 02:33:35;;;;;;;1.33;1.17;;;8.70;96.80;;;;;;5007441;28;20033;-49
2022/01/06 02:36:01;;;;;;;0.93;0.90;;;8.70;97.00;;;;;;5004460;28;20453;-49
2022/01/06 02:38:26;;;;;;;3.10;1.45;;;8.70;96.70;;;;;;5006991;28;20080;-49
2022/01/06 02:40:52;;;;;;;8.77;1.60;;;8.70;96.70;;;;;;5003348;28;20430;-49
2022/01/06 02:43:20;;;;;;;3.50;1.80;;;8.70;96.70;;;;;;5005325;28;20476;-49
2022/01/06 02:45:46;;;;;;;5.68;1.23;;;8.70;96.70;;;;;;5004298;28;20037;-49
2022/01/06 02:48:14;;;;;;;11.55;1.90;;;8.70;96.70;;;;;;5002941;28;20046;-49
2022/01/06 02:50:45;;;;;;;4.85;1.42;;;8.70;96.80;;;;;;5006058;28;20034;-49
2022/01/06 02:53:13;;;;;;;4.22;1.55;;;8.70;96.80;;;;;;5004182;28;20026;-49
2022/01/06 02:55:50;;;;;;;3.55;1.60;;;8.70;96.80;;;;;;5004276;28;20092;-49
2022/01/06 02:58:17;;;;;;;4.97;1.40;;;8.70;96.80;;;;;;5003063;28;20117;-49
2022/01/06 03:00:43;;;;;;;5.32;1.77;;;8.70;96.80;;;;;;5000746;28;20117;-50
2022/01/06 03:03:08;;;;;;;6.82;1.85;;;8.70;96.80;;;;;;5004304;28;20137;-49
2022/01/06 03:05:34;;;;;;;6.63;1.83;;;8.70;96.80;;;;;;5006250;28;20076;-49
2022/01/06 03:08:00;;;;;;;4.47;1.92;;;8.70;96.80;;;;;;5003532;28;20368;-49
2022/01/06 03:10:27;;;;;;;4.13;1.58;;;8.70;96.80;;;;;;5004892;28;20030;-49
2022/01/06 03:12:54;;;;;;;11.35;2.38;;;8.70;96.80;;;;;;5003425;28;20101;-49
2022/01/06 03:15:21;;;;;;;3.17;1.85;;;8.70;96.80;;;;;;5003800;28;20030;-49
2022/01/06 03:17:51;;;;;;;2.08;1.42;;;8.70;96.90;;;;;;5003405;28;20031;-49
2022/01/06 03:20:18;;;;;;;5.07;1.23;;;8.60;96.80;;;;;;5002604;28;20030;-49
2022/01/06 03:22:44;;;;;;;2.00;1.80;;;8.70;96.80;;;;;;5001760;28;20058;-49
2022/01/06 03:25:11;;;;;;;4.22;1.40;;;8.70;96.90;;;;;;5007977;28;20069;-49
2022/01/06 03:27:38;;;;;;;2.45;1.08;;;8.70;96.90;;;;;;5001540;28;20442;-49
2022/01/06 03:30:05;;;;;;;7.07;1.45;;;8.70;96.90;;;;;;4996687;28;20042;-49
2022/01/06 03:32:31;;;;;;;4.15;1.90;;;8.70;96.90;;;;;;5007678;28;20026;-49
2022/01/06 03:34:57;;;;;;;2.17;1.55;;;8.70;96.90;;;;;;5001618;28;20038;-49
2022/01/06 03:37:22;;;;;;;5.45;1.77;;;8.70;96.90;;;;;;5004253;28;20056;-49
2022/01/06 03:39:48;;;;;;;2.83;1.83;;;8.70;96.90;;;;;;5002061;28;20357;-49
2022/01/06 03:42:13;;;;;;;2.20;1.45;;;8.70;96.90;;;;;;5005859;28;20034;-49
2022/01/06 03:44:39;;;;;;;5.68;1.95;;;8.70;97.00;;;;;;5003153;28;20076;-49
2022/01/06 03:47:06;;;;;;;2.83;1.55;;;8.70;96.90;;;;;;5002383;28;20041;-49
2022/01/06 03:49:32;;;;;;;6.10;1.65;;;8.70;97.00;;;;;;5001709;28;20042;-49
2022/01/06 03:51:57;;;;;;;2.17;1.30;;;8.70;97.00;;;;;;5002326;28;20052;-49
2022/01/06 03:54:23;;;;;;;6.43;1.88;;;8.70;96.90;;;;;;5002920;28;20343;-49
2022/01/06 03:56:49;;;;;;;3.72;1.85;;;8.70;97.00;;;;;;5003754;28;20472;-49
2022/01/06 03:59:16;;;;;;;2.80;1.90;;;8.70;97.00;;;;;;5004490;28;20041;-49
2022/01/06 04:01:42;;;;;;;4.60;2.15;;;8.70;97.00;;;;;;5002395;28;20038;-49
2022/01/06 04:04:07;;;;;;;3.63;1.88;;;8.70;97.00;;;;;;5003159;28;20067;-49
2022/01/06 04:06:33;;;;;;;5.35;2.08;;;8.70;97.30;;;;;;5001830;28;20034;-49
2022/01/06 04:08:59;;;;;;;6.82;2.03;;;8.70;97.00;;;;;;5004021;28;20343;-49
2022/01/06 04:11:24;;;;;;;8.70;2.30;;;8.60;96.90;;;;;;5005775;28;20445;-49
2022/01/06 04:13:50;;;;;;;3.05;1.35;;;8.70;97.00;;;;;;5004881;28;20036;-49
2022/01/06 04:16:17;;;;;;;4.53;1.92;;;8.70;97.00;;;;;;5000810;28;20035;-49
2022/01/06 04:18:43;;;;;;;4.13;1.95;;;8.70;97.00;;;;;;5003385;28;20342;-49
2022/01/06 04:21:09;;;;;;;2.85;1.63;;;8.70;97.10;;;;;;5002201;28;20029;-49
2022/01/06 04:23:34;;;;;;;2.15;1.25;;;8.70;97.10;;;;;;5000979;28;20030;-49
2022/01/06 04:26:00;;;;;;;2.45;1.55;;;8.60;97.10;;;;;;5005510;28;20444;-49
2022/01/06 04:28:26;;;;;;;1.67;1.52;;;8.70;97.10;;;;;;5002849;28;20041;-49
2022/01/06 04:30:52;;;;;;;6.07;2.38;;;8.60;97.10;;;;;;5003943;28;20092;-49
2022/01/06 04:33:18;;;;;;;2.83;1.80;;;8.70;97.10;;;;;;5001882;28;20045;-49
2022/01/06 04:35:43;;;;;;;1.63;1.35;;;8.70;97.10;;;;;;5001432;28;20117;-49
2022/01/06 04:38:09;;;;;;;3.65;1.88;;;8.70;97.10;;;;;;5004227;28;20048;-49
2022/01/06 04:40:35;;;;;;;6.10;1.90;;;8.70;97.10;;;;;;5002438;28;20407;-49
2022/01/06 04:43:00;;;;;;;1.55;1.45;;;8.70;97.10;;;;;;5000221;28;20089;-49
2022/01/06 04:45:26;;;;;;;4.18;2.00;;;8.70;97.10;;;;;;5002270;28;20045;-49
2022/01/06 04:47:52;;;;;;;5.20;2.28;;;8.70;97.10;;;;;;5003455;28;20030;-49
2022/01/06 04:50:17;;;;;;;4.00;1.90;;;8.70;97.20;;;;;;5003844;28;20026;-49
2022/01/06 04:52:43;;;;;;;4.22;2.25;;;8.60;97.10;;;;;;5001981;28;20053;-49
2022/01/06 04:55:09;;;;;;;10.07;1.98;;;8.70;97.20;;;;;;4999814;28;20053;-49
2022/01/06 04:57:34;;;;;;;3.15;1.65;;;8.70;97.20;;;;;;5003340;28;20045;-49
2022/01/06 05:00:00;;;;;;;4.88;2.42;;;8.70;97.20;;;;;;5002051;28;20034;-49
2022/01/06 05:02:26;;;;;;;1.63;1.52;;;8.70;97.20;;;;;;5000684;28;20034;-49
2022/01/06 05:04:51;;;;;;;5.43;2.10;;;8.60;97.20;;;;;;5003183;28;20027;-49
2022/01/06 05:07:17;;;;;;;7.18;2.15;;;8.70;97.20;;;;;;5003751;28;20445;-49
2022/01/06 05:09:42;;;;;;;9.93;2.40;;;8.70;97.20;;;;;;5000654;28;20061;-49
2022/01/06 05:12:08;;;;;;;4.05;2.00;;;8.70;97.20;;;;;;5005319;28;20026;-49
2022/01/06 05:14:34;;;;;;;7.05;2.17;;;8.70;97.20;;;;;;5002468;28;20437;-49
2022/01/06 05:17:00;;;;;;;6.28;1.98;;;8.60;97.20;;;;;;5000689;28;20172;-49
2022/01/06 05:19:26;;;;;;;4.88;1.88;;;8.70;97.30;;;;;;5000220;28;20038;-49
2022/01/06 05:21:53;;;;;;;2.95;1.77;;;8.70;97.20;;;;;;5001913;28;20014;-49
2022/01/06 05:24:19;;;;;;;4.82;1.98;;;8.70;97.20;;;;;;5001657;28;20123;-49
2022/01/06 05:26:45;;;;;;;2.97;1.80;;;8.70;97.20;;;;;;5009473;28;20027;-50
2022/01/06 05:29:13;;;;;;;3.38;1.70;;;8.70;97.30;;;;;;5003514;28;20042;-49
2022/01/06 05:31:39;;;;;;;6.72;1.98;;;8.60;97.20;;;;;;5000733;28;20122;-49
2022/01/06 05:34:06;;;;;;;3.83;2.15;;;8.60;97.30;;;;;;5005349;28;20034;-49
2022/01/06 05:36:32;;;;;;;4.07;2.10;;;8.70;97.30;;;;;;5007004;28;20057;-49
2022/01/06 05:38:58;;;;;;;3.38;1.70;;;8.60;97.30;;;;;;5008639;28;20033;-49
2022/01/06 05:41:24;;;;;;;2.38;1.50;;;8.60;97.30;;;;;;5009324;28;20026;-49
2022/01/06 05:43:51;;;;;;;3.65;2.08;;;8.60;97.30;;;;;;4997431;28;20089;-49
2022/01/06 05:46:17;;;;;;;8.45;2.15;;;8.60;97.30;;;;;;5005910;28;20034;-49
2022/01/06 05:48:44;;;;;;;2.33;1.27;;;8.60;97.40;;;;;;5003499;28;20365;-49
2022/01/06 05:51:10;;;;;;;6.10;2.60;;;8.60;97.30;;;;;;5004414;28;20026;-49
2022/01/06 05:53:36;;;;;;;5.05;2.22;;;8.60;97.30;;;;;;5005564;28;20029;-50
2022/01/06 05:56:01;;;;;;;4.03;1.98;;;8.60;97.30;;;;;;5002829;28;20060;-49
2022/01/06 05:58:27;;;;;;;4.72;2.08;;;8.60;97.40;;;;;;5007239;28;20065;-49
2022/01/06 06:00:53;;;;;;;4.13;1.85;;;8.60;97.30;;;;;;5006949;28;20022;-49
2022/01/06 06:03:18;;;;;;;2.28;1.52;;;8.70;97.40;;;;;;5007313;28;20449;-49
2022/01/06 06:05:44;;;;;;;5.28;1.95;;;8.60;97.40;;;;;;4998969;28;20029;-49
2022/01/06 06:08:10;;;;;;;3.10;2.25;;;8.60;97.40;;;;;;5001805;28;20613;-49
2022/01/06 06:10:36;;;;;;;6.25;2.15;;;8.60;97.40;;;;;;5002044;28;20038;-49
2022/01/06 06:13:03;;;;;;;7.18;2.80;;;8.60;97.40;;;;;;5000689;28;20029;-49
2022/01/06 06:15:34;;;;;;;5.55;1.95;;;8.60;97.40;;;;;;4999950;28;20633;-50
2022/01/06 06:18:03;;;;;;;1.63;1.52;;;8.60;97.40;;;;;;5001241;28;20030;-49
2022/01/06 06:20:29;;;;;;;8.40;2.55;;;8.60;97.40;;;;;;5000529;28;20177;-49
2022/01/06 06:22:55;;;;;;;5.30;2.10;;;8.60;97.40;;;;;;5001168;28;20479;-50
2022/01/06 06:25:20;;;;;;;3.33;2.28;;;8.60;97.40;;;;;;5000770;28;20045;-49
2022/01/06 06:27:46;;;;;;;4.22;2.58;;;8.60;97.40;;;;;;5005006;28;20038;-50
2022/01/06 06:30:12;;;;;;;2.53;2.30;;;8.60;97.40;;;;;;5000312;28;20062;-50
2022/01/06 06:32:38;;;;;;;6.97;2.80;;;8.60;97.40;;;;;;4998329;28;20034;-49
2022/01/06 06:35:04;;;;;;;3.03;2.15;;;8.60;97.40;;;;;;4999815;28;20029;-49
2022/01/06 06:37:30;;;;;;;7.85;3.00;;;8.60;97.40;;;;;;5003164;28;20029;-49
2022/01/06 06:39:57;;;;;;;3.05;1.90;;;8.60;97.40;;;;;;5000335;28;20105;-49
2022/01/06 06:42:23;;;;;;;6.10;1.83;;;8.60;97.40;;;;;;5001620;28;20113;-49
2022/01/06 06:44:49;;;;;;;4.93;2.63;;;8.60;97.40;;;;;;5001888;28;20330;-49
2022/01/06 06:47:15;;;;;;;7.57;2.35;;;8.70;97.50;;;;;;5004090;28;20026;-49
2022/01/06 06:49:41;;;;;;;4.38;2.63;;;8.70;97.50;;;;;;5002538;28;20049;-49
2022/01/06 06:52:06;;;;;;;3.95;2.15;;;8.60;97.40;;;;;;4999700;28;20356;-49
2022/01/06 06:54:32;;;;;;;8.18;3.28;;;8.60;97.40;;;;;;5000670;28;20456;-49
2022/01/06 06:56:58;;;;;;;3.00;2.00;;;8.60;97.50;;;;;;5001133;28;20302;-49
2022/01/06 06:59:24;;;;;;;4.82;3.13;;;8.60;97.50;;;;;;5000481;28;20037;-49
2022/01/06 07:01:49;;;;;;;4.47;2.40;;;8.60;97.50;;;;;;4995826;28;20412;-49
2022/01/06 07:04:15;;;;;;;3.60;2.10;;;8.60;97.50;;;;;;5000776;28;20026;-49
2022/01/06 07:06:41;;;;;;;3.00;2.35;;;8.60;97.50;;;;;;4999944;28;20316;-49
2022/01/06 07:09:06;;;;;;;3.97;2.17;;;8.60;97.50;;;;;;5001314;28;20104;-49
2022/01/06 07:11:32;;;;;;;5.57;2.92;;;8.60;97.50;;;;;;5003300;28;20021;-49
2022/01/06 07:13:58;;;;;;;5.38;2.70;;;8.60;97.50;;;;;;5004934;28;20046;-49
2022/01/06 07:16:24;;;;;;;5.45;2.97;;;8.60;97.50;;;;;;5001933;28;20458;-49
2022/01/06 07:18:49;;;;;;;3.67;2.38;;;8.60;97.50;;;;;;5003169;28;20046;-49
2022/01/06 07:21:15;;;;;;;7.45;3.15;;;8.60;97.50;;;;;;5002877;28;20118;-49
2022/01/06 07:23:40;;;;;;;7.70;2.72;;;8.60;97.50;;;;;;5002259;28;20037;-49
2022/01/06 07:26:06;;;;;;;6.00;2.33;;;8.60;97.50;;;;;;5004234;28;20040;-49
2022/01/06 07:28:32;;;;;;;4.32;2.78;;;8.60;97.50;;;;;;5003539;28;20042;-49
2022/01/06 07:30:57;;;;;;;3.78;2.38;;;8.60;97.50;;;;;;5004300;28;20025;-49
2022/01/06 07:33:23;;;;;;;6.43;2.75;;;8.60;97.50;;;;;;5000089;28;20076;-49
2022/01/06 07:35:48;;;;;;;6.57;2.45;;;8.60;97.60;;;;;;5005353;28;20429;-49
2022/01/06 07:38:14;;;;;;;6.80;2.75;;;8.60;97.60;;;;;;5007505;28;20030;-49
2022/01/06 07:40:40;;;;;;;3.45;2.67;;;8.60;97.60;;;;;;5006666;28;20630;-49
2022/01/06 07:43:06;;;;;;;6.30;2.03;;;8.60;97.60;;;;;;5007030;28;20072;-49
2022/01/06 07:45:31;;;;;;;6.32;2.95;;;8.60;97.60;;;;;;5007744;28;20109;-49
2022/01/06 07:48:00;;;;;;;3.88;2.63;;;8.60;97.60;;;;;;5004890;28;20034;-49
2022/01/06 07:50:35;;;;;;;4.57;2.53;;;8.60;97.60;;;;;;5004507;28;20038;-49
2022/01/06 07:53:01;;;;;;;4.05;2.35;;;8.60;97.60;;;;;;5000291;28;20412;-49
2022/01/06 07:55:27;;;;;;;3.35;2.67;;;8.70;97.60;;;;;;5004621;28;20153;-49
2022/01/06 07:57:54;;;;;;;4.13;2.35;;;8.60;97.50;;;;;;4998797;28;20136;-49
2022/01/06 08:00:21;;;;;;;5.25;2.55;;;8.60;97.60;;;;;;5003034;28;20026;-49
2022/01/06 08:02:47;;;;;;;3.97;2.53;;;8.60;97.60;;;;;;5002471;28;20025;-49
2022/01/06 08:05:15;;;;;;;7.65;2.60;;;8.60;97.50;;;;;;5007712;28;20143;-49
2022/01/06 08:07:41;;;;;;;4.90;2.38;;;8.60;97.60;;;;;;5001490;28;20235;-49
2022/01/06 08:10:08;;;;;;;3.50;2.42;;;8.60;97.60;;;;;;5008451;28;20053;-49
2022/01/06 08:12:35;;;;;;;4.13;2.85;;;8.60;97.60;;;;;;5003820;28;20029;-49
2022/01/06 08:15:00;;;;;;;3.13;1.83;;;8.60;97.60;;;;;;5002588;28;20033;-49
2022/01/06 08:17:26;;;;;;;3.42;2.25;;;8.60;97.60;;;;;;5004147;28;20341;-49
2022/01/06 08:19:52;;;;;;;7.50;2.20;;;8.60;97.60;;;;;;5005015;28;20108;-49
2022/01/06 08:22:21;;;;;;;2.85;2.17;;;8.60;97.60;;;;;;5003253;28;20114;-49
2022/01/06 08:24:46;;;;;;;8.25;3.38;;;8.60;97.60;;;;;;5010398;28;20353;-49
2022/01/06 08:27:12;;;;;;;3.42;2.33;;;8.60;97.60;;;;;;5010295;28;20033;-49
2022/01/06 08:29:39;;;;;;;4.57;3.20;;;8.60;97.60;;;;;;5008924;28;20518;-49
2022/01/06 08:32:06;;;;;;;8.95;3.08;;;8.60;97.60;;;;;;5008118;28;20385;-49
2022/01/06 08:34:31;;;;;;;4.15;2.25;;;8.60;97.60;;;;;;5007218;28;20057;-49
2022/01/06 08:36:57;;;;;;;3.95;2.20;;;8.60;97.60;;;;;;5009099;28;20437;-49
2022/01/06 08:39:23;;;;;;;4.35;2.05;;;8.60;97.60;;;;;;5008148;28;20033;-49
2022/01/06 08:41:53;;;;;;;6.78;3.30;;;8.60;97.60;;;;;;5009990;28;20393;-49
2022/01/06 08:44:20;;;;;;;9.30;3.03;;;8.60;97.00;;;;;;5007297;28;20165;-50
2022/01/06 08:46:47;;;;;;;5.22;2.53;;;8.60;96.40;;;;;;5009054;28;20066;-50
2022/01/06 08:49:13;;;;;;;6.65;4.28;;;8.50;95.60;;;;;;5005898;28;20037;-50
2022/01/06 08:51:39;;;;;;;4.85;3.28;;;8.50;95.10;;;;;;5007418;28;20037;-50
2022/01/06 08:54:06;;;;;;;5.88;2.72;;;8.50;94.80;;;;;;5009276;28;20373;-50
2022/01/06 08:56:33;;;;;;;7.85;3.22;;;8.50;94.20;;;;;;5010277;28;20018;-50
2022/01/06 08:58:59;;;;;;;3.50;2.60;;;8.50;94.10;;;;;;5010697;28;20052;-49
2022/01/06 09:01:25;;;;;;;5.45;3.03;;;8.40;94.00;;;;;;5009796;28;20026;-50
2022/01/06 09:03:51;;;;;;;11.00;3.05;;;8.40;93.80;;;;;;5002884;28;20026;-50
2022/01/06 09:06:17;;;;;;;6.03;2.70;;;8.40;93.40;;;;;;5008809;28;20030;-50
2022/01/06 09:08:42;;;;;;;6.28;3.03;;;8.40;93.50;;;;;;5010017;28;20065;-50
2022/01/06 09:11:08;;;;;;;6.07;3.13;;;8.40;93.20;;;;;;5010183;28;20018;-50
2022/01/06 09:13:34;;;;;;;6.90;3.88;;;8.40;93.00;;;;;;5008216;28;20025;-49
2022/01/06 09:15:59;;;;;;;7.53;3.03;;;8.40;93.20;;;;;;5007274;28;20068;-50
2022/01/06 09:18:25;;;;;;;6.60;3.97;;;8.40;93.10;;;;;;5006517;28;20033;-50
2022/01/06 09:20:51;;;;;;;5.85;3.17;;;8.40;93.10;;;;;;5006698;28;20369;-50
2022/01/06 09:23:16;;;;;;;5.22;2.88;;;8.30;93.00;;;;;;5005462;28;20429;-50
2022/01/06 09:25:43;;;;;;;4.75;3.25;;;8.40;93.00;;;;;;5004478;28;20034;-50
2022/01/06 09:28:09;;;;;;;3.95;2.75;;;8.40;93.10;;;;;;5006145;28;20045;-50
2022/01/06 09:30:36;;;;;;;7.57;2.83;;;8.40;92.70;;;;;;5009114;28;20052;-49
2022/01/06 09:33:02;;;;;;;4.32;1.83;;;8.40;93.00;;;;;;5004547;28;20129;-50
2022/01/06 09:35:28;;;;;;;2.03;1.52;;;8.40;92.90;;;;;;5005984;28;20130;-49
2022/01/06 09:37:54;;;;;;;2.33;1.35;;;8.40;92.50;;;;;;5004124;28;20032;-50
2022/01/06 09:40:19;;;;;;;2.08;1.35;;;8.40;92.70;;;;;;5008277;28;20029;-49
2022/01/06 09:42:45;;;;;;;2.72;1.33;;;8.30;92.40;;;;;;5007390;28;20029;-49
2022/01/06 09:45:12;;;;;;;2.85;0.80;;;8.30;92.80;;;;;;5007020;28;20409;-49
2022/01/06 09:47:38;;;;;;;5.72;0.85;;;8.30;93.00;;;;;;5006459;28;20036;-49
2022/01/06 09:50:05;;;;;;;4.47;1.83;;;8.30;92.70;;;;;;5008545;28;20025;-49
2022/01/06 09:52:33;;;;;;;2.92;1.58;;;8.40;92.40;;;;;;5008859;28;20026;-50
2022/01/06 09:54:59;;;;;;;3.80;1.20;;;8.30;92.30;;;;;;5008251;28;20437;-49
2022/01/06 09:57:24;;;;;;;6.75;1.88;;;8.30;92.40;;;;;;5000391;28;20036;-49
2022/01/06 09:59:50;;;;;;;4.07;1.52;;;8.30;92.20;;;;;;5005474;28;20029;-50
2022/01/06 10:02:16;;;;;;;4.78;1.50;;;8.30;92.50;;;;;;5004889;28;20499;-50
2022/01/06 10:04:43;;;;;;;5.13;1.38;;;8.30;92.70;;;;;;5006625;28;20464;-50
2022/01/06 10:07:10;;;;;;;7.22;1.23;;;8.40;92.10;;;;;;5008831;28;20034;-49
2022/01/06 10:09:39;;;;;;;4.93;1.70;;;8.40;92.40;;;;;;5004658;28;20351;-50
2022/01/06 10:12:10;;;;;;;7.25;1.65;;;8.30;92.50;;;;;;5006347;28;20037;-50
2022/01/06 10:14:43;;;;;;;3.25;1.45;;;8.30;92.00;;;;;;5006332;28;20032;-49
2022/01/06 10:17:10;;;;;;;11.73;1.85;;;8.40;91.30;;;;;;5010210;28;20080;-49
2022/01/06 10:19:41;;;;;;;7.18;1.42;;;8.30;91.50;;;;;;5005102;28;20462;-49
2022/01/06 10:22:14;;;;;;;;;;;8.30;91.20;;;;;;5008968;28;20088;-50
2022/01/06 10:24:42;;;;;;;4.90;1.88;;;8.30;90.70;;;;;;5007937;28;19921;-49
2022/01/06 10:27:09;;;;;;;4.20;1.58;;;8.20;90.10;;;;;;5001658;28;20026;-50
2022/01/06 10:29:42;;;;;;;8.57;2.17;;;8.20;90.70;;;;;;5004590;28;20527;-49
2022/01/06 10:32:12;;;;;;;3.33;1.08;;;8.20;90.60;;;;;;5008878;28;20044;-50
2022/01/06 10:34:42;;;;;;;6.25;1.42;;;8.20;90.70;;;;;;5006654;28;20030;-50
2022/01/06 10:37:21;;;;;;;4.07;1.40;;;8.30;90.70;;;;;;5009563;28;20022;-50
2022/01/06 10:39:49;;;;;;;4.97;1.88;;;8.30;90.70;;;;;;5008000;28;20026;-50
2022/01/06 10:42:15;;;;;;;7.35;1.70;;;8.30;90.70;;;;;;5008742;28;20084;-50
2022/01/06 10:44:55;;;;;;;13.75;2.55;;;8.20;90.20;;;;;;5007463;28;20030;-49
2022/01/06 10:47:34;;;;;;;3.38;1.75;;;8.20;90.80;;;;;;5008150;28;20435;-49
2022/01/06 10:50:10;;;;;;;5.90;1.60;;;8.20;90.50;;;;;;5008289;28;20429;-49
2022/01/06 10:52:37;;;;;;;4.97;1.65;;;8.20;90.50;;;;;;5008518;28;20064;-50
2022/01/06 10:55:30;;;;;;;6.90;1.40;;;8.30;90.30;;;;;;5012326;28;20026;-50
2022/01/06 10:57:55;;;;;;;5.85;1.60;;;8.20;90.70;;;;;;5010322;28;20041;-49
2022/01/06 11:00:23;;;;;;;6.50;1.63;;;8.20;90.50;;;;;;5008036;28;20031;-49
2022/01/06 11:02:49;;;;;;;6.72;1.40;;;8.20;91.00;;;;;;5006245;28;20048;-49
2022/01/06 11:05:15;;;;;;;6.32;1.30;;;8.20;90.20;;;;;;5011928;28;20030;-50
2022/01/06 11:07:41;;;;;;;7.97;2.83;;;8.20;90.50;;;;;;5010064;28;20014;-50
2022/01/06 11:10:15;;;;;;;1.58;1.48;;;8.20;89.70;;;;;;5010412;28;20365;-50
2022/01/06 11:12:41;;;;;;;1.33;1.15;;;8.10;89.80;;;;;;5010002;28;20117;-49
2022/01/06 11:15:08;;;;;;;2.50;1.48;;;8.20;90.10;;;;;;5012223;28;20393;-49
2022/01/06 11:17:35;;;;;;;2.75;1.23;;;8.20;90.00;;;;;;5010341;28;20034;-49
2022/01/06 11:20:01;;;;;;;8.30;2.17;;;8.20;90.10;;;;;;5009009;28;20034;-49
2022/01/06 11:22:27;;;;;;;7.93;1.45;;;8.20;90.20;;;;;;5008950;28;20030;-49
2022/01/06 11:24:57;;;;;;;2.28;1.15;;;8.20;90.00;;;;;;5010322;28;20022;-49
2022/01/06 11:27:34;;;;;;;10.48;3.28;;;8.20;90.10;;;;;;5011781;28;20354;-50
2022/01/06 11:30:11;;;;;;;11.55;3.03;;;8.20;90.20;;;;;;5010398;28;20456;-49
2022/01/06 11:32:37;;;;;;;9.65;2.30;;;8.20;90.00;;;;;;5011706;28;20034;-49
2022/01/06 11:35:15;;;;;;;12.20;2.70;;;8.20;90.30;;;;;;5006573;28;20030;-49
2022/01/06 11:37:50;;;;;;;5.85;2.42;;;8.20;89.30;;;;;;5010351;28;20112;-50
2022/01/06 11:40:30;;;;;;;3.28;1.25;;;8.20;89.90;;;;;;5009931;28;20084;-50
2022/01/06 11:42:57;;;;;;;11.40;1.73;;;8.20;89.90;;;;;;5010787;28;20029;-49
2022/01/06 11:45:23;;;;;;;6.30;1.65;;;8.10;89.20;;;;;;5007159;28;20033;-49
2022/01/06 11:48:03;;;;;;;2.20;1.00;;;8.10;88.30;;;;;;5011794;28;20026;-49
2022/01/06 11:50:34;;;;;;;2.60;1.13;;;8.20;88.10;;;;;;5007145;28;20113;-50
2022/01/06 11:53:01;;;;;;;7.38;1.15;;;8.20;89.40;;;;;;5009985;28;20129;-50
2022/01/06 11:55:42;;;;;;;3.70;1.15;;;8.20;88.40;;;;;;5009549;28;20120;-49
2022/01/06 11:58:18;;;;;;;1.15;1.05;;;8.20;89.00;;;;;;5008535;28;20053;-50
2022/01/06 12:00:57;;;;;;;9.52;1.38;;;8.20;90.80;;;;;;5011700;28;20022;-50
2022/01/06 12:03:34;;;;;;;3.75;1.00;;;8.20;90.30;;;;;;5010596;28;20030;-49
2022/01/06 12:06:00;;;;;;;5.60;0.90;;;8.20;89.90;;;;;;5007671;28;20061;-50
2022/01/06 12:08:39;;;;;;;6.15;1.38;;;8.20;90.40;;;;;;5008600;28;20085;-50
2022/01/06 12:11:04;;;;;;;3.40;1.08;;;8.20;87.70;;;;;;5012069;28;20036;-50
2022/01/06 12:13:30;;;;;;;5.30;1.80;;;8.20;89.40;;;;;;5010561;28;20396;-50
2022/01/06 12:15:58;;;;;;;6.57;1.23;;;8.20;89.50;;;;;;5010933;28;20061;-49
2022/01/06 12:18:24;;;;;;;2.97;1.45;;;8.20;88.10;;;;;;5010554;28;20169;-50
2022/01/06 12:20:50;;;;;;;2.33;1.23;;;8.20;88.90;;;;;;5007947;28;20029;-49
2022/01/06 12:23:17;;;;;;;12.68;1.60;;;8.20;87.90;;;;;;5006284;28;20465;-50
2022/01/06 12:25:54;;;;;;;5.13;1.13;;;8.20;88.30;;;;;;5008302;28;20103;-50
2022/01/06 12:28:20;;;;;;;2.00;1.27;;;8.20;88.10;;;;;;5011082;28;20124;-50
2022/01/06 12:30:45;;;;;;;7.13;1.08;;;8.20;87.40;;;;;;5008646;28;20156;-50
2022/01/06 12:33:13;;;;;;;3.53;1.30;;;8.20;88.50;;;;;;5008063;28;20453;-50
2022/01/06 12:35:47;;;;;;;1.85;0.90;;;8.20;88.10;;;;;;5006483;28;20026;-49
2022/01/06 12:38:13;;;;;;;8.70;1.83;;;8.20;88.10;;;;;;5010454;28;20299;-50
2022/01/06 12:40:44;;;;;;;6.40;1.30;;;8.20;86.60;;;;;;5010057;28;20037;-49
2022/01/06 12:43:13;;;;;;;;;;;8.10;86.80;;;;;;5010560;28;20026;-49
2022/01/06 12:45:39;;;;;;;6.75;1.50;;;8.00;86.70;;;;;;5010524;28;19910;-49
2022/01/06 12:48:05;;;;;;;5.20;1.88;;;8.00;87.90;;;;;;5005949;28;20049;-50
2022/01/06 12:50:44;;;;;;;4.82;1.70;;;8.00;88.50;;;;;;5004069;28;20025;-50
2022/01/06 12:53:10;;;;;;;6.32;1.30;;;7.90;88.60;;;;;;5005380;28;20124;-50
2022/01/06 12:55:43;;;;;;;8.57;2.33;;;7.90;88.10;;;;;;5006690;28;20099;-50
2022/01/06 12:58:09;;;;;;;3.58;2.10;;;7.80;88.20;;;;;;5004484;28;20026;-49
2022/01/06 13:00:34;;;;;;;2.83;1.73;;;7.90;88.60;;;;;;5003670;28;20355;-51
2022/01/06 13:03:04;;;;;;;7.97;2.45;;;7.90;89.20;;;;;;5005801;28;20135;-49